sim
Sign-in with your pilot id or email,
or register
Callsign
Passwort

Schedule Details

Flight Number: DLH2479
Departure: London Heathrow Airport (EGLL) at 17:50
Arrival: Munich Airport (EDDM) at 19:35
Route: Lufthansa Passenger Schedule. Enter filed route here before submitting Pirep.

Weather Information
Getting current METAR information for EGLL 211750Z AUTO 25003KT 9999 NCD 22/11 Q1015 NOSIG
Getting current METAR information for EDDM 211750Z VRB01KT CAVOK 16/13 Q1015 NOSIG

Schedule Frequency

Route Map